sensor_id;sensor_type;location;lat;lon;timestamp;P1;durP1;ratioP1;P2;durP2;ratioP2
6531;SDS011;3299;42.004;24.868;2024-02-26T00:00:28;27.27;;;15.38;;
6531;SDS011;3299;42.004;24.868;2024-02-26T00:02:54;11.13;;;8.02;;
6531;SDS011;3299;42.004;24.868;2024-02-26T00:05:19;4.13;;;3.72;;
6531;SDS011;3299;42.004;24.868;2024-02-26T00:07:45;4.65;;;3.83;;
6531;SDS011;3299;42.004;24.868;2024-02-26T00:10:11;14.15;;;10.40;;
6531;SDS011;3299;42.004;24.868;2024-02-26T00:12:37;27.88;;;17.23;;
6531;SDS011;3299;42.004;24.868;2024-02-26T00:15:04;26.67;;;16.40;;
6531;SDS011;3299;42.004;24.868;2024-02-26T00:17:30;29.80;;;16.42;;
6531;SDS011;3299;42.004;24.868;2024-02-26T00:19:56;24.27;;;15.88;;
6531;SDS011;3299;42.004;24.868;2024-02-26T00:22:21;26.42;;;15.88;;
6531;SDS011;3299;42.004;24.868;2024-02-26T00:24:47;7.38;;;5.75;;
6531;SDS011;3299;42.004;24.868;2024-02-26T00:27:12;22.05;;;12.60;;
6531;SDS011;3299;42.004;24.868;2024-02-26T00:29:38;19.52;;;11.88;;
6531;SDS011;3299;42.004;24.868;2024-02-26T00:32:03;13.55;;;9.68;;
6531;SDS011;3299;42.004;24.868;2024-02-26T00:34:29;5.80;;;4.95;;
6531;SDS011;3299;42.004;24.868;2024-02-26T00:36:54;14.18;;;8.10;;
6531;SDS011;3299;42.004;24.868;2024-02-26T00:39:19;15.23;;;9.40;;
6531;SDS011;3299;42.004;24.868;2024-02-26T00:41:45;20.00;;;11.75;;
6531;SDS011;3299;42.004;24.868;2024-02-26T00:44:10;18.77;;;12.68;;
6531;SDS011;3299;42.004;24.868;2024-02-26T00:46:36;15.07;;;10.60;;
6531;SDS011;3299;42.004;24.868;2024-02-26T00:49:02;10.95;;;7.10;;
6531;SDS011;3299;42.004;24.868;2024-02-26T00:51:27;15.95;;;10.38;;
6531;SDS011;3299;42.004;24.868;2024-02-26T00:53:54;14.68;;;10.23;;
6531;SDS011;3299;42.004;24.868;2024-02-26T00:56:21;6.55;;;5.07;;
6531;SDS011;3299;42.004;24.868;2024-02-26T00:58:46;4.72;;;3.70;;
6531;SDS011;3299;42.004;24.868;2024-02-26T01:01:12;4.68;;;3.50;;
6531;SDS011;3299;42.004;24.868;2024-02-26T01:03:37;4.00;;;3.60;;
6531;SDS011;3299;42.004;24.868;2024-02-26T01:06:02;11.00;;;7.85;;
6531;SDS011;3299;42.004;24.868;2024-02-26T01:08:28;10.55;;;6.88;;
6531;SDS011;3299;42.004;24.868;2024-02-26T01:10:53;12.80;;;7.95;;
6531;SDS011;3299;42.004;24.868;2024-02-26T01:13:19;9.95;;;7.03;;
6531;SDS011;3299;42.004;24.868;2024-02-26T01:15:44;9.70;;;7.45;;
6531;SDS011;3299;42.004;24.868;2024-02-26T01:18:10;7.68;;;5.10;;
6531;SDS011;3299;42.004;24.868;2024-02-26T01:20:35;4.72;;;2.78;;
6531;SDS011;3299;42.004;24.868;2024-02-26T01:23:01;4.55;;;2.72;;
6531;SDS011;3299;42.004;24.868;2024-02-26T01:25:27;4.18;;;3.13;;
6531;SDS011;3299;42.004;24.868;2024-02-26T01:27:53;3.00;;;2.80;;
6531;SDS011;3299;42.004;24.868;2024-02-26T01:30:18;2.83;;;2.50;;
6531;SDS011;3299;42.004;24.868;2024-02-26T01:32:44;8.35;;;3.03;;
6531;SDS011;3299;42.004;24.868;2024-02-26T01:35:09;5.25;;;2.80;;
6531;SDS011;3299;42.004;24.868;2024-02-26T01:37:36;3.25;;;2.85;;
6531;SDS011;3299;42.004;24.868;2024-02-26T01:40:02;3.72;;;2.85;;
6531;SDS011;3299;42.004;24.868;2024-02-26T01:42:29;6.10;;;3.13;;
6531;SDS011;3299;42.004;24.868;2024-02-26T01:44:56;3.38;;;2.95;;
6531;SDS011;3299;42.004;24.868;2024-02-26T01:47:21;3.15;;;2.60;;
6531;SDS011;3299;42.004;24.868;2024-02-26T01:49:47;2.85;;;2.50;;
6531;SDS011;3299;42.004;24.868;2024-02-26T01:52:14;4.43;;;2.97;;
6531;SDS011;3299;42.004;24.868;2024-02-26T01:54:40;3.22;;;2.92;;
6531;SDS011;3299;42.004;24.868;2024-02-26T01:57:09;3.17;;;2.83;;
6531;SDS011;3299;42.004;24.868;2024-02-26T01:59:35;4.22;;;3.00;;
6531;SDS011;3299;42.004;24.868;2024-02-26T02:02:01;6.55;;;3.60;;
6531;SDS011;3299;42.004;24.868;2024-02-26T02:04:30;3.92;;;3.25;;
6531;SDS011;3299;42.004;24.868;2024-02-26T02:06:56;3.40;;;3.10;;
6531;SDS011;3299;42.004;24.868;2024-02-26T02:09:25;7.60;;;4.85;;
6531;SDS011;3299;42.004;24.868;2024-02-26T02:11:51;16.90;;;11.32;;
6531;SDS011;3299;42.004;24.868;2024-02-26T02:14:16;15.88;;;9.88;;
6531;SDS011;3299;42.004;24.868;2024-02-26T02:16:42;23.42;;;15.07;;
6531;SDS011;3299;42.004;24.868;2024-02-26T02:19:07;26.42;;;16.85;;
6531;SDS011;3299;42.004;24.868;2024-02-26T02:21:33;25.52;;;18.45;;
6531;SDS011;3299;42.004;24.868;2024-02-26T02:23:58;22.85;;;16.48;;
6531;SDS011;3299;42.004;24.868;2024-02-26T02:26:24;23.70;;;16.35;;
6531;SDS011;3299;42.004;24.868;2024-02-26T02:28:49;23.48;;;16.52;;
6531;SDS011;3299;42.004;24.868;2024-02-26T02:31:15;31.15;;;18.83;;
6531;SDS011;3299;42.004;24.868;2024-02-26T02:33:41;26.63;;;16.55;;
6531;SDS011;3299;42.004;24.868;2024-02-26T02:36:07;20.33;;;12.45;;
6531;SDS011;3299;42.004;24.868;2024-02-26T02:38:35;21.67;;;14.10;;
6531;SDS011;3299;42.004;24.868;2024-02-26T02:41:14;18.67;;;13.32;;
6531;SDS011;3299;42.004;24.868;2024-02-26T02:43:39;18.58;;;12.23;;
6531;SDS011;3299;42.004;24.868;2024-02-26T02:46:04;16.83;;;11.80;;
6531;SDS011;3299;42.004;24.868;2024-02-26T02:48:30;15.95;;;11.55;;
6531;SDS011;3299;42.004;24.868;2024-02-26T02:50:57;12.90;;;9.00;;
6531;SDS011;3299;42.004;24.868;2024-02-26T02:53:22;12.88;;;9.43;;
6531;SDS011;3299;42.004;24.868;2024-02-26T02:55:47;12.35;;;9.60;;
6531;SDS011;3299;42.004;24.868;2024-02-26T02:58:13;12.55;;;8.52;;
6531;SDS011;3299;42.004;24.868;2024-02-26T03:00:38;18.77;;;12.60;;
6531;SDS011;3299;42.004;24.868;2024-02-26T03:03:04;16.13;;;11.02;;
6531;SDS011;3299;42.004;24.868;2024-02-26T03:05:29;12.80;;;9.77;;
6531;SDS011;3299;42.004;24.868;2024-02-26T03:07:55;17.52;;;9.95;;
6531;SDS011;3299;42.004;24.868;2024-02-26T03:10:20;15.05;;;9.45;;
6531;SDS011;3299;42.004;24.868;2024-02-26T03:12:46;13.70;;;9.90;;
6531;SDS011;3299;42.004;24.868;2024-02-26T03:15:11;11.68;;;8.82;;
6531;SDS011;3299;42.004;24.868;2024-02-26T03:17:37;11.75;;;7.22;;
6531;SDS011;3299;42.004;24.868;2024-02-26T03:20:02;7.68;;;6.10;;
6531;SDS011;3299;42.004;24.868;2024-02-26T03:22:30;11.40;;;6.70;;
6531;SDS011;3299;42.004;24.868;2024-02-26T03:24:55;9.10;;;6.63;;
6531;SDS011;3299;42.004;24.868;2024-02-26T03:27:21;9.65;;;8.00;;
6531;SDS011;3299;42.004;24.868;2024-02-26T03:29:46;15.43;;;11.48;;
6531;SDS011;3299;42.004;24.868;2024-02-26T03:32:12;23.85;;;15.23;;
6531;SDS011;3299;42.004;24.868;2024-02-26T03:34:38;20.95;;;14.48;;
6531;SDS011;3299;42.004;24.868;2024-02-26T03:37:06;23.65;;;15.40;;
6531;SDS011;3299;42.004;24.868;2024-02-26T03:39:34;25.33;;;15.20;;
6531;SDS011;3299;42.004;24.868;2024-02-26T03:41:59;27.30;;;16.25;;
6531;SDS011;3299;42.004;24.868;2024-02-26T03:44:25;24.17;;;15.57;;
6531;SDS011;3299;42.004;24.868;2024-02-26T03:46:50;23.05;;;16.30;;
6531;SDS011;3299;42.004;24.868;2024-02-26T03:49:16;24.73;;;16.60;;
6531;SDS011;3299;42.004;24.868;2024-02-26T03:51:41;34.47;;;18.08;;
6531;SDS011;3299;42.004;24.868;2024-02-26T03:54:07;25.90;;;17.48;;
6531;SDS011;3299;42.004;24.868;2024-02-26T03:56:32;28.95;;;15.35;;
6531;SDS011;3299;42.004;24.868;2024-02-26T03:58:57;27.67;;;16.60;;
6531;SDS011;3299;42.004;24.868;2024-02-26T04:01:24;23.02;;;15.73;;
6531;SDS011;3299;42.004;24.868;2024-02-26T04:03:50;24.50;;;15.30;;
6531;SDS011;3299;42.004;24.868;2024-02-26T04:06:15;27.65;;;15.82;;
6531;SDS011;3299;42.004;24.868;2024-02-26T04:08:43;26.70;;;15.93;;
6531;SDS011;3299;42.004;24.868;2024-02-26T04:11:08;25.10;;;14.73;;
6531;SDS011;3299;42.004;24.868;2024-02-26T04:13:34;26.08;;;16.50;;
6531;SDS011;3299;42.004;24.868;2024-02-26T04:16:00;26.88;;;18.60;;
6531;SDS011;3299;42.004;24.868;2024-02-26T04:18:29;30.80;;;18.25;;
6531;SDS011;3299;42.004;24.868;2024-02-26T04:20:54;25.25;;;17.77;;
6531;SDS011;3299;42.004;24.868;2024-02-26T04:23:19;26.45;;;17.40;;
6531;SDS011;3299;42.004;24.868;2024-02-26T04:25:45;27.88;;;17.17;;
6531;SDS011;3299;42.004;24.868;2024-02-26T04:28:10;25.95;;;17.23;;
6531;SDS011;3299;42.004;24.868;2024-02-26T04:30:36;27.88;;;19.35;;
6531;SDS011;3299;42.004;24.868;2024-02-26T04:33:01;28.00;;;17.73;;
6531;SDS011;3299;42.004;24.868;2024-02-26T04:35:27;28.90;;;19.02;;
6531;SDS011;3299;42.004;24.868;2024-02-26T04:37:52;30.27;;;18.75;;
6531;SDS011;3299;42.004;24.868;2024-02-26T04:40:18;26.45;;;18.65;;
6531;SDS011;3299;42.004;24.868;2024-02-26T04:42:43;26.42;;;18.35;;
6531;SDS011;3299;42.004;24.868;2024-02-26T04:45:09;29.35;;;18.00;;
6531;SDS011;3299;42.004;24.868;2024-02-26T04:47:34;25.55;;;18.05;;
6531;SDS011;3299;42.004;24.868;2024-02-26T04:49:59;22.45;;;15.43;;
6531;SDS011;3299;42.004;24.868;2024-02-26T04:52:25;22.35;;;14.70;;
6531;SDS011;3299;42.004;24.868;2024-02-26T04:54:50;20.08;;;13.70;;
6531;SDS011;3299;42.004;24.868;2024-02-26T04:57:16;15.77;;;11.57;;
6531;SDS011;3299;42.004;24.868;2024-02-26T04:59:43;17.48;;;11.20;;
6531;SDS011;3299;42.004;24.868;2024-02-26T05:02:10;14.25;;;10.20;;
6531;SDS011;3299;42.004;24.868;2024-02-26T05:04:36;20.17;;;11.32;;
6531;SDS011;3299;42.004;24.868;2024-02-26T05:07:02;20.63;;;12.55;;
6531;SDS011;3299;42.004;24.868;2024-02-26T05:09:27;23.17;;;14.13;;
6531;SDS011;3299;42.004;24.868;2024-02-26T05:11:52;23.63;;;15.10;;
6531;SDS011;3299;42.004;24.868;2024-02-26T05:14:18;21.88;;;15.27;;
6531;SDS011;3299;42.004;24.868;2024-02-26T05:16:43;21.35;;;14.43;;
6531;SDS011;3299;42.004;24.868;2024-02-26T05:19:09;20.30;;;13.23;;
6531;SDS011;3299;42.004;24.868;2024-02-26T05:21:34;21.00;;;13.05;;
6531;SDS011;3299;42.004;24.868;2024-02-26T05:23:59;16.25;;;11.57;;
6531;SDS011;3299;42.004;24.868;2024-02-26T05:26:25;16.55;;;10.38;;
6531;SDS011;3299;42.004;24.868;2024-02-26T05:28:51;12.70;;;9.10;;
6531;SDS011;3299;42.004;24.868;2024-02-26T05:31:24;14.38;;;9.15;;
6531;SDS011;3299;42.004;24.868;2024-02-26T05:33:50;13.85;;;8.50;;
6531;SDS011;3299;42.004;24.868;2024-02-26T05:36:19;10.50;;;7.78;;
6531;SDS011;3299;42.004;24.868;2024-02-26T05:38:48;13.13;;;7.35;;
6531;SDS011;3299;42.004;24.868;2024-02-26T05:41:15;8.07;;;5.72;;
6531;SDS011;3299;42.004;24.868;2024-02-26T05:43:41;8.20;;;5.70;;
6531;SDS011;3299;42.004;24.868;2024-02-26T05:46:06;9.43;;;6.60;;
6531;SDS011;3299;42.004;24.868;2024-02-26T05:48:32;7.95;;;6.50;;
6531;SDS011;3299;42.004;24.868;2024-02-26T05:50:57;8.10;;;5.57;;
6531;SDS011;3299;42.004;24.868;2024-02-26T05:53:23;6.15;;;5.47;;
6531;SDS011;3299;42.004;24.868;2024-02-26T05:55:48;5.05;;;3.70;;
6531;SDS011;3299;42.004;24.868;2024-02-26T05:58:13;5.72;;;4.00;;
6531;SDS011;3299;42.004;24.868;2024-02-26T06:00:39;4.32;;;3.22;;
6531;SDS011;3299;42.004;24.868;2024-02-26T06:03:04;3.28;;;3.08;;
6531;SDS011;3299;42.004;24.868;2024-02-26T06:05:30;3.55;;;3.25;;
6531;SDS011;3299;42.004;24.868;2024-02-26T06:07:55;5.03;;;3.20;;
6531;SDS011;3299;42.004;24.868;2024-02-26T06:10:20;3.60;;;3.30;;
6531;SDS011;3299;42.004;24.868;2024-02-26T06:12:46;3.90;;;3.03;;
6531;SDS011;3299;42.004;24.868;2024-02-26T06:15:12;7.25;;;3.15;;
6531;SDS011;3299;42.004;24.868;2024-02-26T06:17:37;2.85;;;2.42;;
6531;SDS011;3299;42.004;24.868;2024-02-26T06:20:03;4.55;;;3.08;;
6531;SDS011;3299;42.004;24.868;2024-02-26T06:22:31;3.85;;;3.55;;
6531;SDS011;3299;42.004;24.868;2024-02-26T06:24:57;7.22;;;3.85;;
6531;SDS011;3299;42.004;24.868;2024-02-26T06:27:22;4.53;;;4.00;;
6531;SDS011;3299;42.004;24.868;2024-02-26T06:29:48;9.55;;;6.43;;
6531;SDS011;3299;42.004;24.868;2024-02-26T06:32:14;20.40;;;11.50;;
6531;SDS011;3299;42.004;24.868;2024-02-26T06:34:39;23.35;;;14.48;;
6531;SDS011;3299;42.004;24.868;2024-02-26T06:37:07;25.42;;;15.25;;
6531;SDS011;3299;42.004;24.868;2024-02-26T06:39:33;25.52;;;15.55;;
6531;SDS011;3299;42.004;24.868;2024-02-26T06:41:58;25.60;;;16.30;;
6531;SDS011;3299;42.004;24.868;2024-02-26T06:44:26;28.33;;;15.75;;
6531;SDS011;3299;42.004;24.868;2024-02-26T06:47:00;26.85;;;15.73;;
6531;SDS011;3299;42.004;24.868;2024-02-26T06:49:25;30.20;;;19.08;;
6531;SDS011;3299;42.004;24.868;2024-02-26T06:51:53;39.55;;;22.83;;
6531;SDS011;3299;42.004;24.868;2024-02-26T06:54:18;40.42;;;23.50;;
6531;SDS011;3299;42.004;24.868;2024-02-26T06:56:44;44.90;;;23.33;;
6531;SDS011;3299;42.004;24.868;2024-02-26T06:59:10;35.78;;;22.85;;
6531;SDS011;3299;42.004;24.868;2024-02-26T07:01:35;37.95;;;20.75;;
6531;SDS011;3299;42.004;24.868;2024-02-26T07:04:00;36.00;;;21.65;;
6531;SDS011;3299;42.004;24.868;2024-02-26T07:06:28;40.00;;;22.17;;
6531;SDS011;3299;42.004;24.868;2024-02-26T07:08:54;42.63;;;24.40;;
6531;SDS011;3299;42.004;24.868;2024-02-26T07:11:19;42.97;;;25.65;;
6531;SDS011;3299;42.004;24.868;2024-02-26T07:13:45;40.83;;;24.05;;
6531;SDS011;3299;42.004;24.868;2024-02-26T07:16:11;36.13;;;23.60;;
6531;SDS011;3299;42.004;24.868;2024-02-26T07:18:37;42.53;;;24.40;;
6531;SDS011;3299;42.004;24.868;2024-02-26T07:21:04;41.42;;;24.65;;
6531;SDS011;3299;42.004;24.868;2024-02-26T07:23:29;40.88;;;24.50;;
6531;SDS011;3299;42.004;24.868;2024-02-26T07:25:54;39.80;;;24.58;;
6531;SDS011;3299;42.004;24.868;2024-02-26T07:28:20;43.28;;;25.27;;
6531;SDS011;3299;42.004;24.868;2024-02-26T07:30:45;39.20;;;25.30;;
6531;SDS011;3299;42.004;24.868;2024-02-26T07:33:11;35.95;;;23.70;;
6531;SDS011;3299;42.004;24.868;2024-02-26T07:35:36;45.60;;;24.90;;
6531;SDS011;3299;42.004;24.868;2024-02-26T07:38:03;41.30;;;25.30;;
6531;SDS011;3299;42.004;24.868;2024-02-26T07:40:29;46.47;;;26.33;;
6531;SDS011;3299;42.004;24.868;2024-02-26T07:42:55;49.15;;;25.55;;
6531;SDS011;3299;42.004;24.868;2024-02-26T07:45:21;44.85;;;26.80;;
6531;SDS011;3299;42.004;24.868;2024-02-26T07:47:46;46.97;;;25.55;;
6531;SDS011;3299;42.004;24.868;2024-02-26T07:50:12;40.72;;;25.48;;
6531;SDS011;3299;42.004;24.868;2024-02-26T07:52:38;42.80;;;27.60;;
6531;SDS011;3299;42.004;24.868;2024-02-26T07:55:03;45.83;;;28.20;;
6531;SDS011;3299;42.004;24.868;2024-02-26T07:57:30;47.60;;;27.00;;
6531;SDS011;3299;42.004;24.868;2024-02-26T07:59:56;41.67;;;27.33;;
6531;SDS011;3299;42.004;24.868;2024-02-26T08:02:21;50.72;;;30.27;;
6531;SDS011;3299;42.004;24.868;2024-02-26T08:04:47;50.47;;;30.35;;
6531;SDS011;3299;42.004;24.868;2024-02-26T08:07:12;52.92;;;31.50;;
6531;SDS011;3299;42.004;24.868;2024-02-26T08:09:38;45.88;;;28.92;;
6531;SDS011;3299;42.004;24.868;2024-02-26T08:12:03;41.28;;;27.00;;
6531;SDS011;3299;42.004;24.868;2024-02-26T08:14:30;39.38;;;23.45;;
6531;SDS011;3299;42.004;24.868;2024-02-26T08:16:57;32.92;;;22.25;;
6531;SDS011;3299;42.004;24.868;2024-02-26T08:19:22;34.50;;;22.55;;
6531;SDS011;3299;42.004;24.868;2024-02-26T08:21:48;38.47;;;22.73;;
6531;SDS011;3299;42.004;24.868;2024-02-26T08:24:13;34.38;;;23.13;;
6531;SDS011;3299;42.004;24.868;2024-02-26T08:26:38;34.88;;;23.00;;
6531;SDS011;3299;42.004;24.868;2024-02-26T08:29:07;28.05;;;20.10;;
6531;SDS011;3299;42.004;24.868;2024-02-26T08:31:32;24.55;;;16.58;;
6531;SDS011;3299;42.004;24.868;2024-02-26T08:33:57;28.27;;;17.63;;
6531;SDS011;3299;42.004;24.868;2024-02-26T08:36:24;27.70;;;16.70;;
6531;SDS011;3299;42.004;24.868;2024-02-26T08:38:49;18.58;;;12.13;;
6531;SDS011;3299;42.004;24.868;2024-02-26T08:41:14;22.02;;;13.27;;
6531;SDS011;3299;42.004;24.868;2024-02-26T08:43:40;16.30;;;12.35;;
6531;SDS011;3299;42.004;24.868;2024-02-26T08:46:08;25.88;;;18.10;;
6531;SDS011;3299;42.004;24.868;2024-02-26T08:48:35;30.10;;;20.02;;
6531;SDS011;3299;42.004;24.868;2024-02-26T08:51:04;43.45;;;24.05;;
6531;SDS011;3299;42.004;24.868;2024-02-26T08:53:30;43.75;;;26.08;;
6531;SDS011;3299;42.004;24.868;2024-02-26T08:55:55;38.10;;;26.40;;
6531;SDS011;3299;42.004;24.868;2024-02-26T08:58:21;47.20;;;25.85;;
6531;SDS011;3299;42.004;24.868;2024-02-26T09:00:46;38.47;;;24.85;;
6531;SDS011;3299;42.004;24.868;2024-02-26T09:03:12;42.30;;;26.30;;
6531;SDS011;3299;42.004;24.868;2024-02-26T09:05:37;50.53;;;28.02;;
6531;SDS011;3299;42.004;24.868;2024-02-26T09:08:03;50.85;;;28.70;;
6531;SDS011;3299;42.004;24.868;2024-02-26T09:10:28;47.88;;;27.38;;
6531;SDS011;3299;42.004;24.868;2024-02-26T09:12:54;50.63;;;28.30;;
6531;SDS011;3299;42.004;24.868;2024-02-26T09:15:20;41.75;;;26.85;;
6531;SDS011;3299;42.004;24.868;2024-02-26T09:17:45;42.10;;;25.13;;
6531;SDS011;3299;42.004;24.868;2024-02-26T09:20:11;37.58;;;24.60;;
6531;SDS011;3299;42.004;24.868;2024-02-26T09:22:38;39.25;;;23.52;;
6531;SDS011;3299;42.004;24.868;2024-02-26T09:25:04;34.40;;;23.00;;
6531;SDS011;3299;42.004;24.868;2024-02-26T09:27:31;35.03;;;21.95;;
6531;SDS011;3299;42.004;24.868;2024-02-26T09:29:56;34.72;;;21.90;;
6531;SDS011;3299;42.004;24.868;2024-02-26T09:32:22;35.40;;;23.63;;
6531;SDS011;3299;42.004;24.868;2024-02-26T09:34:49;36.67;;;24.30;;
6531;SDS011;3299;42.004;24.868;2024-02-26T09:37:15;37.50;;;23.27;;
6531;SDS011;3299;42.004;24.868;2024-02-26T09:39:40;39.65;;;24.92;;
6531;SDS011;3299;42.004;24.868;2024-02-26T09:42:06;31.48;;;22.10;;
6531;SDS011;3299;42.004;24.868;2024-02-26T09:44:35;38.80;;;24.25;;
6531;SDS011;3299;42.004;24.868;2024-02-26T09:47:04;43.50;;;23.83;;
6531;SDS011;3299;42.004;24.868;2024-02-26T09:49:33;34.17;;;22.65;;
6531;SDS011;3299;42.004;24.868;2024-02-26T09:51:59;36.88;;;25.45;;
6531;SDS011;3299;42.004;24.868;2024-02-26T09:54:27;39.33;;;25.42;;
6531;SDS011;3299;42.004;24.868;2024-02-26T09:56:57;38.50;;;24.58;;
6531;SDS011;3299;42.004;24.868;2024-02-26T09:59:26;35.30;;;24.95;;
6531;SDS011;3299;42.004;24.868;2024-02-26T10:01:53;39.08;;;25.67;;
6531;SDS011;3299;42.004;24.868;2024-02-26T10:04:19;43.25;;;24.58;;
6531;SDS011;3299;42.004;24.868;2024-02-26T10:06:46;44.22;;;25.13;;
6531;SDS011;3299;42.004;24.868;2024-02-26T10:09:12;31.75;;;23.35;;
6531;SDS011;3299;42.004;24.868;2024-02-26T10:11:37;34.90;;;24.10;;
6531;SDS011;3299;42.004;24.868;2024-02-26T10:14:03;35.10;;;23.15;;
6531;SDS011;3299;42.004;24.868;2024-02-26T10:16:29;33.72;;;22.67;;
6531;SDS011;3299;42.004;24.868;2024-02-26T10:18:54;31.55;;;21.90;;
6531;SDS011;3299;42.004;24.868;2024-02-26T10:21:20;32.05;;;20.83;;
6531;SDS011;3299;42.004;24.868;2024-02-26T10:23:46;29.52;;;19.73;;
6531;SDS011;3299;42.004;24.868;2024-02-26T10:26:13;30.65;;;20.38;;
6531;SDS011;3299;42.004;24.868;2024-02-26T10:28:39;30.30;;;19.20;;
6531;SDS011;3299;42.004;24.868;2024-02-26T10:31:06;28.35;;;19.42;;
6531;SDS011;3299;42.004;24.868;2024-02-26T10:33:35;31.92;;;20.70;;
6531;SDS011;3299;42.004;24.868;2024-02-26T10:36:04;33.03;;;19.85;;
6531;SDS011;3299;42.004;24.868;2024-02-26T10:38:30;28.70;;;19.05;;
6531;SDS011;3299;42.004;24.868;2024-02-26T10:40:57;28.48;;;19.58;;
6531;SDS011;3299;42.004;24.868;2024-02-26T10:43:23;25.73;;;18.27;;
6531;SDS011;3299;42.004;24.868;2024-02-26T10:45:50;32.47;;;17.73;;
6531;SDS011;3299;42.004;24.868;2024-02-26T10:48:15;31.05;;;18.30;;
6531;SDS011;3299;42.004;24.868;2024-02-26T10:50:42;27.83;;;17.65;;
6531;SDS011;3299;42.004;24.868;2024-02-26T10:53:12;24.83;;;16.13;;
6531;SDS011;3299;42.004;24.868;2024-02-26T10:55:41;25.23;;;16.92;;
6531;SDS011;3299;42.004;24.868;2024-02-26T10:58:08;24.42;;;17.05;;
6531;SDS011;3299;42.004;24.868;2024-02-26T11:00:34;25.08;;;16.35;;
6531;SDS011;3299;42.004;24.868;2024-02-26T11:03:01;26.25;;;16.23;;
6531;SDS011;3299;42.004;24.868;2024-02-26T11:05:30;25.42;;;16.42;;
6531;SDS011;3299;42.004;24.868;2024-02-26T11:07:58;25.65;;;16.40;;
6531;SDS011;3299;42.004;24.868;2024-02-26T11:10:25;22.70;;;15.90;;
6531;SDS011;3299;42.004;24.868;2024-02-26T11:12:53;22.98;;;16.05;;
6531;SDS011;3299;42.004;24.868;2024-02-26T11:15:20;22.50;;;15.45;;
6531;SDS011;3299;42.004;24.868;2024-02-26T11:17:46;23.38;;;14.20;;
6531;SDS011;3299;42.004;24.868;2024-02-26T11:20:13;21.42;;;14.98;;
6531;SDS011;3299;42.004;24.868;2024-02-26T11:22:39;24.33;;;15.15;;
6531;SDS011;3299;42.004;24.868;2024-02-26T11:25:05;23.02;;;14.70;;
6531;SDS011;3299;42.004;24.868;2024-02-26T11:27:34;28.40;;;16.80;;
6531;SDS011;3299;42.004;24.868;2024-02-26T11:30:04;27.50;;;15.32;;
6531;SDS011;3299;42.004;24.868;2024-02-26T11:32:33;23.67;;;16.38;;
6531;SDS011;3299;42.004;24.868;2024-02-26T11:35:00;23.92;;;15.85;;
6531;SDS011;3299;42.004;24.868;2024-02-26T11:37:26;23.38;;;14.48;;
6531;SDS011;3299;42.004;24.868;2024-02-26T11:39:51;27.38;;;15.50;;
6531;SDS011;3299;42.004;24.868;2024-02-26T11:42:17;24.13;;;15.40;;
6531;SDS011;3299;42.004;24.868;2024-02-26T11:44:48;20.92;;;14.95;;
6531;SDS011;3299;42.004;24.868;2024-02-26T11:47:17;23.35;;;16.02;;
6531;SDS011;3299;42.004;24.868;2024-02-26T11:49:44;22.77;;;15.43;;
6531;SDS011;3299;42.004;24.868;2024-02-26T11:52:09;18.88;;;15.30;;
6531;SDS011;3299;42.004;24.868;2024-02-26T11:54:45;23.20;;;16.30;;
6531;SDS011;3299;42.004;24.868;2024-02-26T11:57:29;21.50;;;14.52;;
6531;SDS011;3299;42.004;24.868;2024-02-26T12:05:21;23.60;;;14.55;;
6531;SDS011;3299;42.004;24.868;2024-02-26T12:07:54;19.60;;;14.93;;
6531;SDS011;3299;42.004;24.868;2024-02-26T12:10:28;22.08;;;15.15;;
6531;SDS011;3299;42.004;24.868;2024-02-26T12:13:02;26.13;;;15.48;;
6531;SDS011;3299;42.004;24.868;2024-02-26T12:15:38;25.02;;;14.90;;
6531;SDS011;3299;42.004;24.868;2024-02-26T12:18:05;24.50;;;15.18;;
6531;SDS011;3299;42.004;24.868;2024-02-26T12:20:32;18.55;;;14.35;;
6531;SDS011;3299;42.004;24.868;2024-02-26T12:22:59;23.13;;;15.57;;
6531;SDS011;3299;42.004;24.868;2024-02-26T12:25:25;21.40;;;14.95;;
6531;SDS011;3299;42.004;24.868;2024-02-26T12:27:53;19.13;;;13.65;;
6531;SDS011;3299;42.004;24.868;2024-02-26T12:30:19;28.88;;;14.63;;
6531;SDS011;3299;42.004;24.868;2024-02-26T12:32:45;23.67;;;13.80;;
6531;SDS011;3299;42.004;24.868;2024-02-26T12:35:14;20.88;;;14.02;;
6531;SDS011;3299;42.004;24.868;2024-02-26T12:37:41;21.08;;;12.80;;
6531;SDS011;3299;42.004;24.868;2024-02-26T12:40:10;21.80;;;13.35;;
6531;SDS011;3299;42.004;24.868;2024-02-26T12:42:36;20.45;;;13.40;;
6531;SDS011;3299;42.004;24.868;2024-02-26T12:45:09;21.52;;;13.25;;
6531;SDS011;3299;42.004;24.868;2024-02-26T12:47:37;19.13;;;13.32;;
6531;SDS011;3299;42.004;24.868;2024-02-26T12:50:10;18.23;;;13.05;;
6531;SDS011;3299;42.004;24.868;2024-02-26T12:52:40;18.15;;;13.05;;
6531;SDS011;3299;42.004;24.868;2024-02-26T12:55:07;23.55;;;12.82;;
6531;SDS011;3299;42.004;24.868;2024-02-26T12:57:37;23.35;;;13.13;;
6531;SDS011;3299;42.004;24.868;2024-02-26T13:00:07;17.52;;;11.93;;
6531;SDS011;3299;42.004;24.868;2024-02-26T13:02:36;20.23;;;12.95;;
6531;SDS011;3299;42.004;24.868;2024-02-26T13:05:03;14.70;;;11.95;;
6531;SDS011;3299;42.004;24.868;2024-02-26T13:07:30;17.25;;;13.00;;
6531;SDS011;3299;42.004;24.868;2024-02-26T13:09:56;14.57;;;11.73;;
6531;SDS011;3299;42.004;24.868;2024-02-26T13:12:22;17.42;;;12.95;;
6531;SDS011;3299;42.004;24.868;2024-02-26T13:14:48;15.38;;;11.35;;
6531;SDS011;3299;42.004;24.868;2024-02-26T13:17:23;17.73;;;11.43;;
6531;SDS011;3299;42.004;24.868;2024-02-26T13:19:50;18.17;;;12.07;;
6531;SDS011;3299;42.004;24.868;2024-02-26T13:22:15;18.92;;;11.45;;
6531;SDS011;3299;42.004;24.868;2024-02-26T13:24:41;14.75;;;10.60;;
6531;SDS011;3299;42.004;24.868;2024-02-26T13:27:07;16.73;;;12.13;;
6531;SDS011;3299;42.004;24.868;2024-02-26T13:29:32;18.33;;;11.77;;
6531;SDS011;3299;42.004;24.868;2024-02-26T13:31:58;16.70;;;11.65;;
6531;SDS011;3299;42.004;24.868;2024-02-26T13:34:24;19.02;;;11.65;;
6531;SDS011;3299;42.004;24.868;2024-02-26T13:36:51;16.10;;;11.32;;
6531;SDS011;3299;42.004;24.868;2024-02-26T13:39:23;15.88;;;11.30;;
6531;SDS011;3299;42.004;24.868;2024-02-26T13:41:50;18.52;;;11.77;;
6531;SDS011;3299;42.004;24.868;2024-02-26T13:44:16;23.55;;;10.40;;
6531;SDS011;3299;42.004;24.868;2024-02-26T13:46:41;17.63;;;11.82;;
6531;SDS011;3299;42.004;24.868;2024-02-26T13:49:08;26.50;;;16.65;;
6531;SDS011;3299;42.004;24.868;2024-02-26T13:51:34;15.93;;;11.65;;
6531;SDS011;3299;42.004;24.868;2024-02-26T13:54:00;14.02;;;10.32;;
6531;SDS011;3299;42.004;24.868;2024-02-26T13:56:26;16.85;;;11.18;;
6531;SDS011;3299;42.004;24.868;2024-02-26T13:58:52;15.40;;;10.65;;
6531;SDS011;3299;42.004;24.868;2024-02-26T14:01:17;14.15;;;10.70;;
6531;SDS011;3299;42.004;24.868;2024-02-26T14:03:43;17.67;;;11.10;;
6531;SDS011;3299;42.004;24.868;2024-02-26T14:06:08;23.02;;;11.88;;
6531;SDS011;3299;42.004;24.868;2024-02-26T14:08:34;15.52;;;11.45;;
6531;SDS011;3299;42.004;24.868;2024-02-26T14:10:59;20.63;;;11.90;;
6531;SDS011;3299;42.004;24.868;2024-02-26T14:13:25;18.48;;;12.77;;
6531;SDS011;3299;42.004;24.868;2024-02-26T14:15:50;18.83;;;12.70;;
6531;SDS011;3299;42.004;24.868;2024-02-26T14:18:16;21.35;;;14.75;;
6531;SDS011;3299;42.004;24.868;2024-02-26T14:20:41;30.52;;;18.85;;
6531;SDS011;3299;42.004;24.868;2024-02-26T14:23:07;20.25;;;14.60;;
6531;SDS011;3299;42.004;24.868;2024-02-26T14:25:33;24.75;;;17.13;;
6531;SDS011;3299;42.004;24.868;2024-02-26T14:27:59;21.50;;;15.48;;
6531;SDS011;3299;42.004;24.868;2024-02-26T14:30:25;20.05;;;13.93;;
6531;SDS011;3299;42.004;24.868;2024-02-26T14:32:51;17.90;;;14.20;;
6531;SDS011;3299;42.004;24.868;2024-02-26T14:35:16;20.27;;;13.27;;
6531;SDS011;3299;42.004;24.868;2024-02-26T14:37:42;22.05;;;13.95;;
6531;SDS011;3299;42.004;24.868;2024-02-26T14:40:11;19.70;;;13.82;;